Time;durP1;ratioP1;P1;durP2;ratioP2;P2;SDS_P1;SDS_P2;PMS_P1;PMS_P2;Temp;Humidity;BMP_temperature;BMP_pressure;BME280_temperature;BME280_humidity;BME280_pressure;Samples;Min_cycle;Max_cycle;Signal;HPM_P1;HPM_P2
2024/04/11 00:02:10;;;;;;;8.20;4.97;;;11.10;99.90;;;;;;5449863;26;20228;-79
2024/04/11 00:04:36;;;;;;;12.43;6.22;;;11.10;99.90;;;;;;5431030;26;20268;-78
2024/04/11 00:07:05;;;;;;;8.48;5.75;;;11.10;99.90;;;;;;5440270;26;20244;-80
2024/04/11 00:09:31;;;;;;;7.00;4.93;;;11.10;99.90;;;;;;5438205;26;20271;-80
2024/04/11 00:12:02;;;;;;;7.65;5.72;;;11.10;99.90;;;;;;5436959;26;20599;-80
2024/04/11 00:14:28;;;;;;;6.40;5.10;;;11.10;99.90;;;;;;5436176;26;20271;-80
2024/04/11 00:16:58;;;;;;;6.97;6.28;;;11.10;99.90;;;;;;5435261;26;20240;-81
2024/04/11 00:19:24;;;;;;;9.43;5.53;;;11.00;99.90;;;;;;5443138;26;20782;-79
2024/04/11 00:21:52;;;;;;;10.38;6.15;;;11.00;99.90;;;;;;5445459;26;20311;-79
2024/04/11 00:24:18;;;;;;;10.20;6.05;;;10.90;99.90;;;;;;5428461;26;20232;-78
2024/04/11 00:26:48;;;;;;;14.43;6.57;;;10.90;99.90;;;;;;5446480;26;20279;-80
2024/04/11 00:29:16;;;;;;;9.77;6.18;;;10.80;99.90;;;;;;5420504;26;20463;-79
2024/04/11 00:31:45;;;;;;;6.90;4.65;;;10.80;99.90;;;;;;5455764;26;20239;-79
2024/04/11 00:34:15;;;;;;;9.20;5.70;;;10.80;99.90;;;;;;5455586;26;20275;-78
2024/04/11 00:36:44;;;;;;;10.70;5.55;;;10.70;99.90;;;;;;5453374;26;20327;-78
2024/04/11 00:39:16;;;;;;;29.52;7.15;;;10.70;99.90;;;;;;5441767;26;20233;-79
2024/04/11 00:41:45;;;;;;;10.65;5.60;;;10.70;99.90;;;;;;5454353;26;20245;-78
2024/04/11 00:44:11;;;;;;;10.00;5.47;;;10.70;99.90;;;;;;5455267;26;20335;-79
2024/04/11 00:46:42;;;;;;;8.00;5.15;;;10.70;99.90;;;;;;5448614;26;20760;-79
2024/04/11 00:49:09;;;;;;;7.20;5.65;;;10.80;99.90;;;;;;5434223;26;20332;-79
2024/04/11 00:51:40;;;;;;;5.72;4.97;;;10.80;99.90;;;;;;5448976;26;20236;-79
2024/04/11 00:54:06;;;;;;;8.73;5.18;;;10.90;99.90;;;;;;5449866;26;20587;-79
2024/04/11 00:56:35;;;;;;;9.02;5.20;;;10.90;99.90;;;;;;5447565;26;20252;-79
2024/04/11 00:59:01;;;;;;;6.78;5.00;;;10.90;99.90;;;;;;5433728;26;20236;-79
2024/04/11 01:01:31;;;;;;;11.23;6.00;;;11.00;99.90;;;;;;5442380;26;20264;-79
2024/04/11 01:04:00;;;;;;;15.25;5.70;;;11.00;99.90;;;;;;5416489;26;20234;-78
2024/04/11 01:06:28;;;;;;;11.05;5.28;;;11.10;99.90;;;;;;5449427;26;20244;-78
2024/04/11 01:08:54;;;;;;;7.25;4.85;;;11.10;99.90;;;;;;5439735;26;20238;-79
2024/04/11 01:11:23;;;;;;;5.87;5.00;;;11.10;99.90;;;;;;5430219;26;20649;-80
2024/04/11 01:13:52;;;;;;;18.92;7.75;;;11.10;99.90;;;;;;5447709;26;20729;-80
2024/04/11 01:16:25;;;;;;;11.02;4.90;;;11.10;99.90;;;;;;5446802;26;20241;-81
2024/04/11 01:18:55;;;;;;;6.43;4.90;;;11.10;99.90;;;;;;5446392;26;20319;-79
2024/04/11 01:21:27;;;;;;;5.18;4.57;;;11.10;99.90;;;;;;5434321;26;20241;-79
2024/04/11 01:23:56;;;;;;;10.40;5.55;;;11.10;99.90;;;;;;5448543;26;20244;-78
2024/04/11 01:26:25;;;;;;;8.73;5.55;;;11.00;99.90;;;;;;5441196;26;20276;-79
2024/04/11 01:28:51;;;;;;;9.90;5.75;;;11.00;99.90;;;;;;5448510;26;20244;-79
2024/04/11 01:31:20;;;;;;;5.10;4.32;;;10.90;99.90;;;;;;5444367;26;20592;-79
2024/04/11 01:33:46;;;;;;;11.05;5.45;;;10.90;99.90;;;;;;5449267;26;20374;-80
2024/04/11 01:36:16;;;;;;;8.98;4.80;;;10.90;99.90;;;;;;5447834;26;20360;-79
2024/04/11 01:38:45;;;;;;;5.55;4.38;;;11.00;99.90;;;;;;5441091;26;20294;-78
2024/04/11 01:41:16;;;;;;;6.88;4.78;;;11.00;99.90;;;;;;5453425;26;20238;-78
2024/04/11 01:43:42;;;;;;;5.40;4.35;;;11.10;99.90;;;;;;5455052;26;20297;-77
2024/04/11 01:46:15;;;;;;;6.28;4.80;;;11.20;99.90;;;;;;5451432;26;20232;-79
2024/04/11 01:48:41;;;;;;;8.30;3.92;;;11.20;99.90;;;;;;5448275;26;20312;-78
2024/04/11 01:51:10;;;;;;;7.17;4.30;;;11.30;99.90;;;;;;5446918;26;20233;-79
2024/04/11 01:53:37;;;;;;;6.63;4.35;;;11.30;99.90;;;;;;5435375;26;20516;-81
2024/04/11 01:56:06;;;;;;;10.60;4.93;;;11.30;99.90;;;;;;5444363;26;20332;-80
2024/04/11 01:58:35;;;;;;;7.57;4.53;;;11.30;99.90;;;;;;5429081;26;20248;-82
2024/04/11 02:01:09;;;;;;;8.27;4.95;;;11.30;99.90;;;;;;5430596;26;20232;-79
2024/04/11 02:03:38;;;;;;;9.82;5.05;;;11.40;99.90;;;;;;5434798;26;20730;-78
2024/04/11 02:06:07;;;;;;;5.95;3.20;;;11.40;99.90;;;;;;5447698;26;20772;-77
2024/04/11 02:08:33;;;;;;;4.78;3.70;;;11.50;99.90;;;;;;5429535;26;20286;-77
2024/04/11 02:11:02;;;;;;;10.30;4.85;;;11.40;99.90;;;;;;5426247;26;20237;-78
2024/04/11 02:13:28;;;;;;;6.35;4.22;;;11.40;99.90;;;;;;5449696;26;20834;-79
2024/04/11 02:15:59;;;;;;;7.00;4.50;;;11.40;99.90;;;;;;5448022;26;20248;-79
2024/04/11 02:18:26;;;;;;;6.53;5.22;;;11.40;99.90;;;;;;5451338;26;20477;-80
2024/04/11 02:20:56;;;;;;;5.50;3.75;;;11.50;99.90;;;;;;5433011;26;20285;-79
2024/04/11 02:23:22;;;;;;;9.10;4.38;;;11.50;99.90;;;;;;5445198;26;20747;-80
2024/04/11 02:25:51;;;;;;;5.37;4.00;;;11.40;99.90;;;;;;5409823;26;20289;-79
2024/04/11 02:28:19;;;;;;;10.88;4.57;;;11.40;99.90;;;;;;5439166;26;20555;-80
2024/04/11 02:30:48;;;;;;;9.55;3.90;;;11.40;99.90;;;;;;5445085;26;20594;-80
2024/04/11 02:33:16;;;;;;;9.32;4.55;;;11.50;99.90;;;;;;5434242;26;20284;-78
2024/04/11 02:35:45;;;;;;;9.73;4.55;;;11.50;99.90;;;;;;5449144;26;20224;-79
2024/04/11 02:38:11;;;;;;;6.68;3.70;;;11.50;99.90;;;;;;5449960;26;20244;-79
2024/04/11 02:40:40;;;;;;;6.43;4.33;;;11.60;99.90;;;;;;5440919;26;20344;-78
2024/04/11 02:43:06;;;;;;;10.13;4.40;;;11.70;99.90;;;;;;5445494;26;20466;-80
2024/04/11 02:45:34;;;;;;;9.40;4.40;;;11.70;99.90;;;;;;5444493;26;20615;-80
2024/04/11 02:48:03;;;;;;;9.90;4.20;;;11.80;99.90;;;;;;5446703;26;20519;-79
2024/04/11 02:50:34;;;;;;;5.35;3.20;;;11.80;99.90;;;;;;5422980;26;20279;-80
2024/04/11 02:53:00;;;;;;;7.45;3.30;;;11.70;99.90;;;;;;5433421;26;20237;-79
2024/04/11 02:55:34;;;;;;;7.43;3.22;;;11.60;99.90;;;;;;5428600;26;20248;-79
2024/04/11 02:58:00;;;;;;;7.72;3.28;;;11.70;99.90;;;;;;5435270;26;20302;-79
2024/04/11 03:00:29;;;;;;;5.60;3.22;;;11.80;99.90;;;;;;5441651;26;20229;-80
2024/04/11 03:02:55;;;;;;;6.45;3.50;;;11.80;99.90;;;;;;5434555;26;20241;-79
2024/04/11 03:05:25;;;;;;;4.63;3.10;;;11.80;99.90;;;;;;5450052;26;20274;-78
2024/04/11 03:07:54;;;;;;;6.72;3.97;;;11.80;99.90;;;;;;5431611;26;20901;-80
2024/04/11 03:10:22;;;;;;;5.28;2.67;;;11.80;99.90;;;;;;5438562;26;20329;-79
2024/04/11 03:12:48;;;;;;;8.90;3.80;;;11.80;99.90;;;;;;5452852;26;20232;-78
2024/04/11 03:15:18;;;;;;;4.87;3.10;;;11.80;99.90;;;;;;5448394;26;20241;-78
2024/04/11 03:17:44;;;;;;;4.15;2.60;;;11.90;99.90;;;;;;5453650;26;20957;-78
2024/04/11 03:20:17;;;;;;;3.90;2.38;;;11.90;99.90;;;;;;5444745;26;20274;-80
2024/04/11 03:22:43;;;;;;;6.55;2.85;;;11.80;99.90;;;;;;5446961;26;20263;-79
2024/04/11 03:25:14;;;;;;;6.95;3.00;;;11.90;99.90;;;;;;5430590;26;20229;-79
2024/04/11 03:27:40;;;;;;;5.55;2.90;;;11.90;99.90;;;;;;5446621;26;20236;-79
2024/04/11 03:30:10;;;;;;;8.50;2.70;;;12.00;99.90;;;;;;5434804;26;20237;-80
2024/04/11 03:32:36;;;;;;;8.88;2.63;;;12.00;99.90;;;;;;5419587;26;20466;-80
2024/04/11 03:35:06;;;;;;;5.70;2.70;;;12.00;99.90;;;;;;5424367;26;20237;-79
2024/04/11 03:37:32;;;;;;;5.72;1.92;;;12.00;99.90;;;;;;5444975;26;20466;-79
2024/04/11 03:40:03;;;;;;;8.00;3.73;;;12.00;99.90;;;;;;5425358;26;20237;-79
2024/04/11 03:42:36;;;;;;;5.22;2.25;;;12.00;99.90;;;;;;5431445;26;20473;-78
2024/04/11 03:45:11;;;;;;;3.47;2.10;;;12.00;99.90;;;;;;5432965;26;20341;-79
2024/04/11 03:47:37;;;;;;;5.85;2.30;;;12.10;99.90;;;;;;5418976;26;20258;-79
2024/04/11 03:50:07;;;;;;;8.43;2.67;;;12.20;99.90;;;;;;5441778;26;20262;-79
2024/04/11 03:52:33;;;;;;;12.85;2.95;;;12.20;99.90;;;;;;5444017;26;20236;-79
2024/04/11 03:55:02;;;;;;;5.20;2.70;;;12.20;99.90;;;;;;5438468;26;20334;-79
2024/04/11 03:57:28;;;;;;;10.65;2.65;;;12.20;99.90;;;;;;5444189;26;20473;-78
2024/04/11 03:59:59;;;;;;;7.30;2.70;;;12.30;99.90;;;;;;5521037;21;20340;-80
2024/04/11 04:02:25;;;;;;;8.77;2.90;;;12.30;99.90;;;;;;5527540;26;20462;-80
2024/04/11 04:04:53;;;;;;;6.00;3.13;;;12.30;99.90;;;;;;5522867;26;20298;-79
2024/04/11 04:07:19;;;;;;;8.90;3.05;;;12.20;99.90;;;;;;5506263;26;20460;-79
2024/04/11 04:09:48;;;;;;;4.13;2.50;;;12.20;99.90;;;;;;5478977;26;20320;-79
2024/04/11 04:12:16;;;;;;;4.18;2.50;;;12.10;99.90;;;;;;5487294;26;20484;-79
2024/04/11 04:14:45;;;;;;;6.60;2.63;;;12.10;99.90;;;;;;5487054;26;20749;-79
2024/04/11 04:17:16;;;;;;;5.57;2.97;;;12.10;99.90;;;;;;5488436;26;20231;-79
2024/04/11 04:19:45;;;;;;;7.55;3.03;;;12.10;99.90;;;;;;5471021;26;20227;-80
2024/04/11 04:22:16;;;;;;;5.65;2.75;;;12.20;99.90;;;;;;5493133;26;20289;-80
2024/04/11 04:24:44;;;;;;;14.63;3.97;;;12.20;99.90;;;;;;5494623;26;20818;-81
2024/04/11 04:27:11;;;;;;;9.00;2.85;;;12.20;99.90;;;;;;5494792;26;20266;-80
2024/04/11 04:29:41;;;;;;;8.68;3.85;;;12.20;99.90;;;;;;5487941;26;20239;-80
2024/04/11 04:32:08;;;;;;;8.10;2.60;;;12.30;99.90;;;;;;5495058;26;20231;-80
2024/04/11 04:34:39;;;;;;;5.95;2.50;;;12.20;99.90;;;;;;5493728;26;20617;-80
2024/04/11 04:37:06;;;;;;;4.43;2.30;;;12.20;99.90;;;;;;5494181;26;20472;-80
2024/04/11 04:39:41;;;;;;;7.18;3.00;;;12.20;99.90;;;;;;5494652;26;20303;-80
2024/04/11 04:42:07;;;;;;;5.13;2.20;;;12.30;99.90;;;;;;5494684;26;20230;-79
2024/04/11 04:44:37;;;;;;;7.75;3.13;;;12.30;99.90;;;;;;5493417;26;20231;-79
2024/04/11 04:47:15;;;;;;;7.63;3.10;;;12.40;99.90;;;;;;5492573;26;20265;-79
2024/04/11 04:49:47;;;;;;;8.77;3.78;;;12.30;99.90;;;;;;5480772;26;20239;-79
2024/04/11 04:52:14;;;;;;;7.07;2.60;;;12.30;99.90;;;;;;5493843;26;20351;-79
2024/04/11 04:54:43;;;;;;;5.45;2.47;;;12.30;99.90;;;;;;5495227;26;20243;-79
2024/04/11 04:57:11;;;;;;;4.97;1.88;;;12.30;99.90;;;;;;5493900;26;20809;-80
2024/04/11 04:59:41;;;;;;;6.90;3.40;;;12.30;99.90;;;;;;5479787;26;20247;-80
2024/04/11 05:02:09;;;;;;;8.23;2.35;;;12.20;99.90;;;;;;5494551;26;20474;-80
2024/04/11 05:04:39;;;;;;;6.57;2.67;;;12.30;99.90;;;;;;5475844;26;20261;-79
2024/04/11 05:07:08;;;;;;;8.45;2.90;;;12.30;99.90;;;;;;5492188;26;20231;-78
2024/04/11 05:09:38;;;;;;;7.28;2.67;;;12.30;99.90;;;;;;5487529;26;20236;-79
2024/04/11 05:12:05;;;;;;;5.80;2.75;;;12.30;99.90;;;;;;5484110;26;20266;-78
2024/04/11 05:14:38;;;;;;;7.88;2.50;;;12.30;99.90;;;;;;5490850;26;20235;-79
2024/04/11 05:17:08;;;;;;;8.70;2.83;;;12.30;99.90;;;;;;5493115;26;20283;-79
2024/04/11 05:19:36;;;;;;;3.38;2.00;;;12.40;99.90;;;;;;5495479;26;20261;-79
2024/04/11 05:22:04;;;;;;;8.20;3.22;;;12.50;99.90;;;;;;5496396;26;20235;-80
2024/04/11 05:24:35;;;;;;;12.75;2.97;;;12.50;99.90;;;;;;5500390;26;20732;-79
2024/04/11 05:27:02;;;;;;;11.82;3.50;;;12.60;99.90;;;;;;5499842;26;20270;-79
2024/04/11 05:29:31;;;;;;;7.90;3.00;;;12.60;99.90;;;;;;5492421;26;20239;-79
2024/04/11 05:31:57;;;;;;;10.90;4.47;;;12.60;99.90;;;;;;5499668;26;20235;-82
2024/04/11 05:34:26;;;;;;;9.40;2.60;;;12.60;99.90;;;;;;5506563;26;20283;-78
2024/04/11 05:36:53;;;;;;;4.57;2.40;;;12.60;99.90;;;;;;5507451;26;20460;-82
2024/04/11 05:39:22;;;;;;;7.13;2.72;;;12.60;99.90;;;;;;5500219;26;20243;-80
2024/04/11 05:41:51;;;;;;;6.63;2.42;;;12.60;99.90;;;;;;5497082;26;20279;-79
2024/04/11 05:44:20;;;;;;;12.38;3.20;;;12.50;99.90;;;;;;5498354;26;20312;-80
2024/04/11 05:46:46;;;;;;;3.65;2.08;;;12.50;99.90;;;;;;5502446;26;20265;-81
2024/04/11 05:49:16;;;;;;;10.68;2.47;;;12.50;99.90;;;;;;5497776;26;20351;-80
2024/04/11 05:51:42;;;;;;;6.47;2.67;;;12.60;99.90;;;;;;5505186;26;20239;-80
2024/04/11 05:54:11;;;;;;;6.50;3.88;;;12.60;99.90;;;;;;5500104;26;20655;-78
2024/04/11 05:56:37;;;;;;;7.88;3.38;;;12.60;99.90;;;;;;5488900;26;20269;-80
2024/04/11 05:59:08;;;;;;;6.65;2.65;;;12.60;99.90;;;;;;5487857;26;20231;-80
2024/04/11 06:01:36;;;;;;;4.30;2.45;;;12.70;99.90;;;;;;5496684;26;20223;-78
2024/04/11 06:04:06;;;;;;;9.20;2.55;;;12.60;99.90;;;;;;5509635;26;20247;-77
2024/04/11 06:06:32;;;;;;;7.95;3.00;;;12.70;99.90;;;;;;5511384;26;20231;-77
2024/04/11 06:09:02;;;;;;;11.90;2.92;;;12.70;99.90;;;;;;5512232;26;20234;-77
2024/04/11 06:11:28;;;;;;;4.20;2.22;;;12.80;99.90;;;;;;5511544;26;20265;-78
2024/04/11 06:13:57;;;;;;;8.98;2.97;;;12.90;99.90;;;;;;5511701;26;20280;-81
2024/04/11 06:16:26;;;;;;;5.97;2.58;;;12.90;99.90;;;;;;5511875;26;20227;-80
2024/04/11 06:18:56;;;;;;;7.70;2.30;;;12.90;99.90;;;;;;5498469;26;20337;-80
2024/04/11 06:21:31;;;;;;;4.68;2.60;;;13.00;99.90;;;;;;5489682;26;20569;-80
2024/04/11 06:24:01;;;;;;;4.43;2.35;;;13.00;99.90;;;;;;5504651;26;20226;-80
2024/04/11 06:26:27;;;;;;;6.53;3.25;;;13.10;99.90;;;;;;5510761;26;20227;-80
2024/04/11 06:28:56;;;;;;;5.57;2.57;;;13.10;99.90;;;;;;5511095;26;20285;-80
2024/04/11 06:31:28;;;;;;;8.32;2.50;;;13.10;99.90;;;;;;5507408;26;20502;-80
2024/04/11 06:33:57;;;;;;;9.18;3.00;;;13.20;99.90;;;;;;5500829;26;20300;-81
2024/04/11 06:36:23;;;;;;;5.82;2.58;;;13.20;99.90;;;;;;5494841;26;20231;-80
2024/04/11 06:38:52;;;;;;;7.50;2.80;;;13.20;99.90;;;;;;5497719;26;20294;-79
2024/04/11 06:41:22;;;;;;;7.28;2.72;;;13.20;99.90;;;;;;5496812;26;20456;-80
2024/04/11 06:43:51;;;;;;;7.43;3.13;;;13.10;99.90;;;;;;5499006;26;20333;-80
2024/04/11 06:46:18;;;;;;;5.80;2.80;;;13.10;99.90;;;;;;5493819;26;20269;-79
2024/04/11 06:48:49;;;;;;;6.65;2.75;;;12.90;99.90;;;;;;5498223;26;20270;-80
2024/04/11 06:51:19;;;;;;;5.22;2.53;;;12.80;99.90;;;;;;5496536;26;20247;-81
2024/04/11 06:53:48;;;;;;;9.90;3.38;;;12.70;99.90;;;;;;5494726;26;20269;-81
2024/04/11 06:56:17;;;;;;;7.63;3.28;;;12.70;99.90;;;;;;5492706;26;20295;-81
2024/04/11 06:58:48;;;;;;;5.20;2.97;;;12.50;99.90;;;;;;5487858;26;20300;-81
2024/04/11 07:01:15;;;;;;;10.10;3.42;;;12.50;99.90;;;;;;5496511;26;20235;-80
2024/04/11 07:03:49;;;;;;;12.20;4.07;;;12.40;99.90;;;;;;5497326;26;20235;-82
2024/04/11 07:06:21;;;;;;;10.80;3.90;;;12.40;99.90;;;;;;5496234;26;20371;-81
2024/04/11 07:08:52;;;;;;;12.55;3.53;;;12.20;99.90;;;;;;5497814;26;20305;-80
2024/04/11 07:11:27;;;;;;;9.10;3.45;;;12.00;99.90;;;;;;5493107;26;20231;-79
2024/04/11 07:13:57;;;;;;;7.65;4.18;;;12.00;99.90;;;;;;5495675;26;20231;-79
2024/04/11 07:16:26;;;;;;;10.32;3.42;;;11.90;99.90;;;;;;5496118;26;20239;-80
2024/04/11 07:18:57;;;;;;;8.13;3.63;;;11.80;99.90;;;;;;5496145;26;20286;-81
2024/04/11 07:21:30;;;;;;;12.55;3.58;;;11.60;99.90;;;;;;5490617;26;20230;-80
2024/04/11 07:24:03;;;;;;;11.70;4.65;;;11.60;99.90;;;;;;5492354;26;20286;-81
2024/04/11 07:26:30;;;;;;;6.75;2.83;;;11.60;99.90;;;;;;5491739;26;20234;-82
2024/04/11 07:28:59;;;;;;;6.45;3.58;;;11.60;99.90;;;;;;5492622;26;20235;-80
2024/04/11 07:31:26;;;;;;;7.80;3.75;;;11.70;99.90;;;;;;5489911;26;20304;-79
2024/04/11 07:33:55;;;;;;;12.13;4.50;;;11.70;99.90;;;;;;5491712;26;20246;-80
2024/04/11 07:36:22;;;;;;;11.50;5.38;;;11.80;99.90;;;;;;5491057;26;20350;-80
2024/04/11 07:38:57;;;;;;;8.88;4.25;;;11.70;99.90;;;;;;5488253;26;20674;-79
2024/04/11 07:41:27;;;;;;;8.63;4.28;;;11.80;99.90;;;;;;5482792;26;20273;-82
2024/04/11 07:47:16;;;;;;;6.57;3.45;;;11.90;99.90;;;;;;5480108;26;20235;-83
2024/04/11 07:49:45;;;;;;;8.70;4.07;;;11.70;99.90;;;;;;5489204;26;20307;-79
2024/04/11 07:52:14;;;;;;;10.93;4.85;;;11.80;99.90;;;;;;5492848;26;20235;-80
2024/04/11 07:54:43;;;;;;;8.68;4.45;;;12.00;99.90;;;;;;5479503;26;20565;-80
2024/04/11 07:57:12;;;;;;;10.23;5.18;;;12.00;99.90;;;;;;5487798;26;20279;-80
2024/04/11 07:59:38;;;;;;;8.07;3.72;;;12.20;99.90;;;;;;5492341;26;20255;-80
2024/04/11 08:02:10;;;;;;;8.33;3.90;;;12.20;99.90;;;;;;5483898;26;20351;-79
2024/04/11 08:04:36;;;;;;;8.27;4.07;;;12.10;99.90;;;;;;5481490;26;20476;-79
2024/04/11 08:07:05;;;;;;;10.60;4.00;;;12.20;99.90;;;;;;5478279;26;20256;-80
2024/04/11 08:09:44;;;;;;;11.27;4.78;;;12.20;99.90;;;;;;5492511;26;20282;-79
2024/04/11 08:12:17;;;;;;;12.02;5.03;;;12.10;99.90;;;;;;5488372;26;20595;-79
2024/04/11 08:14:43;;;;;;;6.05;3.88;;;12.20;99.90;;;;;;5479549;26;20337;-80
2024/04/11 08:17:13;;;;;;;10.80;4.47;;;12.30;99.90;;;;;;5492650;26;20235;-83
2024/04/11 08:19:42;;;;;;;6.35;3.65;;;12.30;99.90;;;;;;5494992;26;20463;-81
2024/04/11 08:22:08;;;;;;;15.65;6.25;;;12.30;99.90;;;;;;5487631;26;20330;-81
2024/04/11 08:24:37;;;;;;;13.18;4.80;;;12.40;99.90;;;;;;5494028;26;20248;-81
2024/04/11 08:27:03;;;;;;;16.20;4.25;;;12.50;99.90;;;;;;5489316;26;20687;-81
2024/04/11 08:29:35;;;;;;;10.95;4.72;;;12.50;99.90;;;;;;5491491;26;20290;-81
2024/04/11 08:32:00;;;;;;;8.77;3.85;;;12.50;99.90;;;;;;5478520;26;20415;-81
2024/04/11 08:34:30;;;;;;;7.20;3.83;;;12.50;99.90;;;;;;5475826;26;20239;-79
2024/04/11 08:36:58;;;;;;;12.10;3.97;;;12.60;99.90;;;;;;5469982;26;20468;-80
2024/04/11 08:39:27;;;;;;;9.30;4.93;;;12.70;99.90;;;;;;5485391;26;20612;-82
2024/04/11 08:41:53;;;;;;;7.38;3.63;;;12.80;99.90;;;;;;5490137;26;20243;-83
2024/04/11 08:44:22;;;;;;;10.33;4.73;;;12.70;99.90;;;;;;5485237;26;20224;-80
2024/04/11 08:46:51;;;;;;;6.65;4.55;;;12.70;99.90;;;;;;5505564;26;20504;-79
2024/04/11 08:49:19;;;;;;;9.07;3.92;;;12.80;99.90;;;;;;5509962;26;20235;-81
2024/04/11 08:51:48;;;;;;;8.70;3.70;;;13.00;99.90;;;;;;5505751;26;20274;-80
2024/04/11 08:54:19;;;;;;;12.63;4.07;;;13.10;99.90;;;;;;5503045;26;20254;-81
2024/04/11 08:56:45;;;;;;;7.95;4.50;;;13.10;99.90;;;;;;5503781;26;20219;-80
2024/04/11 08:59:14;;;;;;;10.43;4.63;;;13.10;99.90;;;;;;5509076;26;20278;-80
2024/04/11 09:01:43;;;;;;;9.98;5.25;;;13.10;99.90;;;;;;5509334;26;20621;-80
2024/04/11 09:04:12;;;;;;;7.28;3.55;;;13.30;99.90;;;;;;5486449;26;20270;-81
2024/04/11 09:06:42;;;;;;;11.68;4.72;;;13.30;99.90;;;;;;5486014;26;20374;-81
2024/04/11 09:09:15;;;;;;;9.43;4.95;;;13.30;99.90;;;;;;5499035;26;20231;-82
2024/04/11 09:11:46;;;;;;;8.85;5.13;;;13.40;99.90;;;;;;5502158;25;20270;-82
2024/04/11 09:14:12;;;;;;;6.13;3.88;;;13.50;99.90;;;;;;5500622;26;20303;-82
2024/04/11 09:16:42;;;;;;;9.50;4.05;;;13.50;99.90;;;;;;5497613;26;20278;-81
2024/04/11 09:19:12;;;;;;;5.45;2.90;;;13.40;99.90;;;;;;5498633;26;20339;-82
2024/04/11 09:21:45;;;;;;;6.75;4.40;;;13.30;99.90;;;;;;5497729;26;20311;-82
2024/04/11 09:24:16;;;;;;;4.82;3.38;;;13.40;99.90;;;;;;5497382;26;20642;-82
2024/04/11 09:26:45;;;;;;;12.75;4.65;;;13.20;99.90;;;;;;5495797;26;20239;-81
2024/04/11 09:29:11;;;;;;;6.22;4.20;;;13.30;99.90;;;;;;5491591;26;20305;-80
2024/04/11 09:31:40;;;;;;;6.90;3.35;;;13.50;99.90;;;;;;5492493;26;20604;-81
2024/04/11 09:34:11;;;;;;;9.60;3.75;;;13.40;99.90;;;;;;5489910;26;20239;-81
2024/04/11 09:36:48;;;;;;;8.23;3.42;;;13.30;99.90;;;;;;5497045;26;20235;-82
2024/04/11 09:39:41;;;;;;;6.93;3.70;;;13.30;99.90;;;;;;5498239;26;20230;-81
2024/04/11 09:42:11;;;;;;;11.00;3.70;;;13.20;99.90;;;;;;5491309;26;20430;-81
2024/04/11 09:44:44;;;;;;;8.65;3.72;;;13.40;99.90;;;;;;5500469;26;20231;-81
2024/04/11 09:47:18;;;;;;;9.10;3.90;;;13.30;99.90;;;;;;5499960;26;20760;-81
2024/04/11 09:49:53;;;;;;;13.07;5.40;;;13.50;99.90;;;;;;5481487;26;20240;-81
2024/04/11 09:52:27;;;;;;;5.90;3.80;;;13.70;99.90;;;;;;5496133;26;20320;-81
2024/04/11 09:54:55;;;;;;;4.78;3.45;;;13.80;99.90;;;;;;5500128;26;20269;-81
2024/04/11 09:57:26;;;;;;;7.93;3.55;;;14.20;99.90;;;;;;5485356;26;20651;-80
2024/04/11 09:59:56;;;;;;;16.75;5.70;;;15.00;99.90;;;;;;5503093;20;20298;-83
2024/04/11 10:02:28;;;;;;;11.55;4.75;;;15.00;99.90;;;;;;5460576;26;20272;-82
2024/04/11 10:04:57;;;;;;;7.83;4.30;;;15.20;99.90;;;;;;5461692;26;20236;-82
2024/04/11 10:07:41;;;;;;;14.63;6.20;;;15.10;99.90;;;;;;5460299;26;20529;-82
2024/04/11 10:10:17;;;;;;;8.15;4.70;;;14.90;99.90;;;;;;5462116;26;20513;-82
2024/04/11 10:12:48;;;;;;;19.80;5.90;;;14.70;99.90;;;;;;5461227;26;20239;-82
2024/04/11 10:15:18;;;;;;;12.40;4.80;;;14.50;99.90;;;;;;5460215;26;20296;-81
2024/04/11 10:17:48;;;;;;;13.95;4.22;;;14.60;99.90;;;;;;5438869;26;20358;-82
2024/04/11 10:20:14;;;;;;;9.15;4.40;;;14.70;99.90;;;;;;5455726;26;20742;-83
2024/04/11 10:22:52;;;;;;;7.07;4.10;;;14.90;99.90;;;;;;5463668;26;20297;-81
2024/04/11 10:28:15;;;;;;;6.72;4.82;;;14.80;99.90;;;;;;5456248;25;20272;-81
2024/04/11 10:30:42;;;;;;;10.75;3.80;;;14.80;99.90;;;;;;5474568;26;20249;-84
2024/04/11 10:33:13;;;;;;;12.82;4.40;;;14.90;99.90;;;;;;5472333;26;20224;-83
2024/04/11 10:35:41;;;;;;;14.37;5.13;;;15.30;99.90;;;;;;5451333;26;20286;-82
2024/04/11 10:38:26;;;;;;;12.20;5.80;;;15.30;99.90;;;;;;5471210;26;20508;-83
2024/04/11 10:40:59;;;;;;;11.13;4.57;;;15.40;99.90;;;;;;5475136;26;20461;-82
2024/04/11 10:43:28;;;;;;;8.90;5.17;;;15.50;99.90;;;;;;5475203;26;20461;-82
2024/04/11 10:45:56;;;;;;;9.00;5.07;;;15.60;99.90;;;;;;5474889;26;20505;-83
2024/04/11 10:48:40;;;;;;;11.37;5.67;;;15.70;99.90;;;;;;5475102;26;20649;-82
2024/04/11 10:51:08;;;;;;;6.82;4.43;;;15.50;99.90;;;;;;5470595;26;20580;-82
2024/04/11 10:53:42;;;;;;;8.00;4.57;;;15.60;99.90;;;;;;5467905;26;20232;-83
2024/04/11 10:56:20;;;;;;;10.67;3.87;;;15.60;99.90;;;;;;5467481;26;20522;-81
2024/04/11 10:58:50;;;;;;;9.40;5.10;;;15.80;99.90;;;;;;5449851;26;20471;-83
2024/04/11 11:01:17;;;;;;;12.53;4.70;;;15.90;99.90;;;;;;5447081;26;20477;-83
2024/04/11 11:03:50;;;;;;;6.13;3.67;;;16.20;99.90;;;;;;5460156;26;21054;-82
2024/04/11 11:06:24;;;;;;;11.60;5.70;;;16.40;99.90;;;;;;5459729;26;20530;-83
2024/04/11 11:08:59;;;;;;;10.57;5.10;;;16.40;99.90;;;;;;5446167;26;20563;-82
2024/04/11 11:11:26;;;;;;;9.20;4.37;;;16.50;99.90;;;;;;5459176;26;20472;-82
2024/04/11 11:14:00;;;;;;;6.43;5.00;;;16.40;99.90;;;;;;5460011;26;20577;-82
2024/04/11 11:16:31;;;;;;;8.47;5.70;;;16.30;99.90;;;;;;5459078;26;20476;-83
2024/04/11 11:19:00;;;;;;;9.63;5.50;;;16.20;99.90;;;;;;5460338;26;20482;-82
2024/04/11 11:21:32;;;;;;;10.07;5.13;;;16.10;99.90;;;;;;5458393;26;20506;-83
2024/04/11 11:24:06;;;;;;;11.30;5.97;;;16.20;99.90;;;;;;5448266;26;20479;-82
2024/04/11 11:26:35;;;;;;;7.23;5.33;;;15.90;99.90;;;;;;5455016;26;20927;-81
2024/04/11 11:29:05;;;;;;;7.50;5.20;;;16.00;99.90;;;;;;5443559;26;21021;-82
2024/04/11 11:31:36;;;;;;;6.60;5.70;;;16.10;99.90;;;;;;5460258;26;20461;-83
2024/04/11 11:34:09;;;;;;;8.33;5.37;;;16.10;99.90;;;;;;5455565;26;20513;-84
2024/04/11 11:36:37;;;;;;;9.43;5.27;;;16.20;99.90;;;;;;5460779;26;20944;-82
2024/04/11 11:39:17;;;;;;;9.40;5.80;;;16.10;99.90;;;;;;5443139;26;20495;-81
2024/04/11 11:41:47;;;;;;;9.33;5.40;;;16.00;99.90;;;;;;5459463;26;20878;-81
2024/04/11 11:44:21;;;;;;;13.93;7.07;;;15.80;99.90;;;;;;5450097;26;20456;-80
2024/04/11 11:46:49;;;;;;;10.50;6.10;;;16.00;99.90;;;;;;5446547;26;20796;-82
2024/04/11 11:49:18;;;;;;;13.20;5.70;;;16.20;99.90;;;;;;5457560;26;20531;-82
2024/04/11 11:51:45;;;;;;;11.30;5.47;;;16.30;99.90;;;;;;5455783;26;20483;-84
2024/04/11 11:54:16;;;;;;;8.70;5.70;;;16.40;99.90;;;;;;5454242;26;20464;-82
2024/04/11 11:56:42;;;;;;;6.70;5.20;;;16.40;99.90;;;;;;5459346;26;20543;-81
2024/04/11 11:59:11;;;;;;;10.70;5.60;;;16.50;99.90;;;;;;5447341;26;20533;-83
2024/04/11 12:01:41;;;;;;;10.80;5.63;;;16.30;99.90;;;;;;5462166;26;20798;-80
2024/04/11 12:04:10;;;;;;;11.43;6.17;;;16.10;99.90;;;;;;5460063;26;20869;-83
2024/04/11 12:06:36;;;;;;;13.53;6.63;;;16.00;99.90;;;;;;5467136;26;20834;-83
2024/04/11 12:09:10;;;;;;;11.07;7.10;;;16.00;99.90;;;;;;5458097;26;20471;-82
2024/04/11 12:11:53;;;;;;;8.87;5.40;;;16.10;99.90;;;;;;5459589;26;20474;-82
2024/04/11 12:14:28;;;;;;;7.07;5.73;;;16.20;99.90;;;;;;5463256;26;20472;-80
2024/04/11 12:17:48;;;;;;;9.83;5.97;;;16.20;99.90;;;;;;5431362;26;20534;-82
2024/04/11 12:19:52;;;;;;;7.33;5.80;;;16.30;99.90;;;;;;5433574;26;20461;-79
2024/04/11 12:22:18;;;;;;;9.93;6.10;;;16.30;99.90;;;;;;5458968;26;20507;-79
2024/04/11 12:24:50;;;;;;;12.43;5.77;;;16.50;99.90;;;;;;5459024;26;20545;-80
2024/04/11 12:27:23;;;;;;;8.50;5.00;;;16.30;99.90;;;;;;5449454;26;20464;-80
2024/04/11 12:29:52;;;;;;;7.25;5.32;;;16.20;99.90;;;;;;5451803;26;20568;-80
2024/04/11 12:32:18;;;;;;;12.83;7.17;;;16.20;99.90;;;;;;5459270;26;20722;-81
2024/04/11 12:34:47;;;;;;;8.20;6.20;;;16.20;99.90;;;;;;5457017;26;20471;-81
2024/04/11 12:37:15;;;;;;;7.83;5.70;;;16.20;99.90;;;;;;5455413;26;20475;-81
2024/04/11 12:39:45;;;;;;;7.10;5.33;;;16.30;99.90;;;;;;5453143;26;20468;-84
2024/04/11 12:42:17;;;;;;;9.20;6.40;;;16.20;99.90;;;;;;5460084;26;20540;-82
2024/04/11 12:44:48;;;;;;;16.25;7.25;;;16.10;99.90;;;;;;5458248;26;20618;-82
2024/04/11 12:47:16;;;;;;;8.90;7.90;;;16.10;99.90;;;;;;5460182;26;20236;-81
2024/04/11 12:49:47;;;;;;;13.70;6.40;;;16.00;99.90;;;;;;5458910;26;20475;-82
2024/04/11 12:52:14;;;;;;;6.20;5.27;;;16.00;99.90;;;;;;5462606;26;20496;-81
2024/04/11 12:54:42;;;;;;;13.23;6.57;;;16.00;99.90;;;;;;5463006;26;20469;-82
2024/04/11 12:57:10;;;;;;;11.70;6.10;;;16.10;99.90;;;;;;5461519;26;20512;-81
2024/04/11 12:59:45;;;;;;;12.77;6.27;;;16.00;99.90;;;;;;5460129;26;20558;-81
2024/04/11 13:02:19;;;;;;;8.23;5.73;;;16.00;99.90;;;;;;5461100;26;20476;-82